createdAt,value
2018-02-11T00:00:23.279Z,1005.01
2018-02-11T00:01:23.264Z,1005.01
2018-02-11T00:02:23.241Z,1005.02
2018-02-11T00:03:23.222Z,1004.99
2018-02-11T00:04:23.225Z,1004.94
2018-02-11T00:05:23.182Z,1004.96
2018-02-11T00:06:23.780Z,1004.99
2018-02-11T00:07:23.150Z,1004.94
2018-02-11T00:08:23.123Z,1004.93
2018-02-11T00:09:23.100Z,1004.94
2018-02-11T00:10:23.080Z,1004.93
2018-02-11T00:11:44.070Z,1004.91
2018-02-11T00:12:23.041Z,1004.88
2018-02-11T00:13:23.038Z,1004.86
2018-02-11T00:14:23.001Z,1004.81
2018-02-11T00:15:22.992Z,1004.82
2018-02-11T00:16:22.961Z,1004.78
2018-02-11T00:17:22.949Z,1004.76
2018-02-11T00:18:22.918Z,1004.80
2018-02-11T00:19:22.898Z,1004.76
2018-02-11T00:20:22.891Z,1004.73
2018-02-11T00:21:22.869Z,1004.66
2018-02-11T00:22:22.840Z,1004.59
2018-02-11T00:23:22.856Z,1004.60
2018-02-11T00:24:22.797Z,1004.58
2018-02-11T00:25:22.774Z,1004.54
2018-02-11T00:26:22.760Z,1004.49
2018-02-11T00:27:22.760Z,1004.48
2018-02-11T00:28:22.717Z,1004.47
2018-02-11T00:29:22.686Z,1004.46
2018-02-11T00:30:22.673Z,1004.44
2018-02-11T00:31:22.654Z,1004.40
2018-02-11T00:32:23.299Z,1004.35
2018-02-11T00:33:22.631Z,1004.36
2018-02-11T00:34:22.588Z,1004.27
2018-02-11T00:35:22.570Z,1004.25
2018-02-11T00:36:22.557Z,1004.24
2018-02-11T00:37:22.528Z,1004.26
2018-02-11T00:38:22.507Z,1004.10
2018-02-11T00:39:22.505Z,1004.17
2018-02-11T00:40:22.468Z,1004.25
2018-02-11T00:41:22.503Z,1004.13
2018-02-11T00:42:23.283Z,1004.11
2018-02-11T00:43:22.426Z,1003.97
2018-02-11T00:44:22.385Z,1004.06
2018-02-11T00:45:22.362Z,1004.05
2018-02-11T00:46:22.346Z,1003.99
2018-02-11T00:47:22.328Z,1004.00
2018-02-11T00:48:22.296Z,1003.98
2018-02-11T00:49:22.299Z,1003.98
2018-02-11T00:50:22.254Z,1003.90
2018-02-11T00:51:22.242Z,1003.89
2018-02-11T00:52:22.216Z,1003.91
2018-02-11T00:53:22.198Z,1003.89
2018-02-11T00:54:22.191Z,1003.85
2018-02-11T00:55:43.178Z,1003.88
2018-02-11T00:56:22.136Z,1003.84
2018-02-11T00:57:22.116Z,1003.82
2018-02-11T00:58:22.844Z,1003.83
2018-02-11T00:59:22.074Z,1003.79
2018-02-11T01:00:22.064Z,1003.75
2018-02-11T01:01:22.047Z,1003.72
2018-02-11T01:02:22.012Z,1003.72
2018-02-11T01:03:21.992Z,1003.68
2018-02-11T01:04:22.806Z,1003.62
2018-02-11T01:05:21.952Z,1003.67
2018-02-11T01:06:23.766Z,1003.59
2018-02-11T01:07:21.907Z,1003.62
2018-02-11T01:08:21.887Z,1003.63
2018-02-11T01:09:21.884Z,1003.60
2018-02-11T01:10:21.864Z,1003.49
2018-02-11T01:11:21.827Z,1003.49
2018-02-11T01:12:21.833Z,1003.47
2018-02-11T01:13:21.786Z,1003.42
2018-02-11T01:14:21.765Z,1003.38
2018-02-11T01:15:22.300Z,1003.35
2018-02-11T01:16:21.736Z,1003.31
2018-02-11T01:17:21.714Z,1003.25
2018-02-11T01:18:21.675Z,1003.22
2018-02-11T01:19:21.660Z,1003.15
2018-02-11T01:20:21.638Z,1003.17
2018-02-11T01:21:21.619Z,1003.09
2018-02-11T01:22:21.614Z,1003.07
2018-02-11T01:23:21.589Z,1003.05
2018-02-11T01:24:22.302Z,1002.98
2018-02-11T01:25:21.535Z,1002.93
2018-02-11T01:26:21.510Z,1002.89
2018-02-11T01:27:21.489Z,1002.83
2018-02-11T01:28:21.491Z,1002.83
2018-02-11T01:29:21.446Z,1002.88
2018-02-11T01:30:22.278Z,1002.84
2018-02-11T01:31:21.417Z,1002.74
2018-02-11T01:32:21.386Z,1002.74
2018-02-11T01:33:21.379Z,1002.77
2018-02-11T01:34:21.347Z,1002.77
2018-02-11T01:35:21.328Z,1002.69
2018-02-11T01:36:21.306Z,1002.70
2018-02-11T01:37:21.279Z,1002.60
2018-02-11T01:38:21.279Z,1002.63
2018-02-11T01:39:21.248Z,1002.56
2018-02-11T01:40:21.283Z,1002.53
2018-02-11T01:41:21.201Z,1002.47
2018-02-11T01:42:21.195Z,1002.44
2018-02-11T01:43:21.157Z,1002.43
2018-02-11T01:44:21.132Z,1002.37
2018-02-11T01:45:21.129Z,1002.35
2018-02-11T01:46:21.094Z,1002.36
2018-02-11T01:47:21.075Z,1002.30
2018-02-11T01:48:21.055Z,1002.24
2018-02-11T01:49:21.029Z,1002.10
2018-02-11T01:50:22.768Z,1002.14
2018-02-11T01:51:20.989Z,1002.13
2018-02-11T01:52:20.974Z,1002.07
2018-02-11T01:53:21.810Z,1002.08
2018-02-11T01:54:21.805Z,1001.94
2018-02-11T01:55:20.958Z,1001.96
2018-02-11T01:56:22.768Z,1001.91
2018-02-11T01:57:21.769Z,1001.80
2018-02-11T01:58:20.838Z,1001.81
2018-02-11T01:59:20.827Z,1001.76
2018-02-11T02:00:20.800Z,1001.73
2018-02-11T02:01:20.793Z,1001.70
2018-02-11T02:02:20.759Z,1001.72
2018-02-11T02:03:20.750Z,1001.72
2018-02-11T02:04:20.717Z,1001.70
2018-02-11T02:05:20.698Z,1001.65
2018-02-11T02:06:20.692Z,1001.63
2018-02-11T02:07:20.656Z,1001.57
2018-02-11T02:08:20.628Z,1001.68
2018-02-11T02:09:20.619Z,1001.63
2018-02-11T02:10:20.595Z,1001.59
2018-02-11T02:11:20.590Z,1001.58
2018-02-11T02:12:20.544Z,1001.59
2018-02-11T02:13:20.526Z,1001.56
2018-02-11T02:14:20.502Z,1001.45
2018-02-11T02:15:20.484Z,1001.50
2018-02-11T02:16:21.271Z,1001.46
2018-02-11T02:17:20.454Z,1001.46
2018-02-11T02:18:20.435Z,1001.43
2018-02-11T02:19:20.404Z,1001.39
2018-02-11T02:20:20.382Z,1001.37
2018-02-11T02:21:20.354Z,1001.28
2018-02-11T02:22:20.354Z,1001.22
2018-02-11T02:23:20.319Z,1001.24
2018-02-11T02:24:20.300Z,1001.17
2018-02-11T02:25:20.277Z,1001.11
2018-02-11T02:26:20.255Z,1001.16
2018-02-11T02:27:20.304Z,1001.07
2018-02-11T02:28:20.239Z,1001.11
2018-02-11T02:29:20.192Z,1001.07
2018-02-11T02:30:20.170Z,1001.07
2018-02-11T02:31:20.146Z,1000.99
2018-02-11T02:32:20.130Z,1001.02
2018-02-11T02:33:20.106Z,1000.88
2018-02-11T02:34:20.109Z,1000.92
2018-02-11T02:35:20.087Z,1000.93
2018-02-11T02:36:20.059Z,1000.84
2018-02-11T02:37:20.041Z,1000.74
2018-02-11T02:38:20.005Z,1000.85
2018-02-11T02:39:20.022Z,1000.88
2018-02-11T02:40:19.979Z,1000.75
2018-02-11T02:41:19.939Z,1000.73
2018-02-11T02:42:19.916Z,1000.66
2018-02-11T02:43:19.902Z,1000.63
2018-02-11T02:44:19.879Z,1000.61
2018-02-11T02:45:19.891Z,1000.56
2018-02-11T02:46:19.846Z,1000.59
2018-02-11T02:47:19.812Z,1000.48
2018-02-11T02:48:19.803Z,1000.47
2018-02-11T02:49:19.776Z,1000.46
2018-02-11T02:50:19.770Z,1000.37
2018-02-11T02:51:19.759Z,1000.31
2018-02-11T02:52:19.713Z,1000.25
2018-02-11T02:53:19.689Z,1000.25
2018-02-11T02:54:19.671Z,1000.24
2018-02-11T02:55:19.651Z,1000.19
2018-02-11T02:56:19.622Z,1000.11
2018-02-11T02:57:19.631Z,1000.14
2018-02-11T02:58:19.598Z,1000.07
2018-02-11T02:59:20.311Z,1000.08
2018-02-11T03:00:19.542Z,999.99
2018-02-11T03:01:19.548Z,1000.03
2018-02-11T03:02:19.523Z,1000.10
2018-02-11T03:03:19.491Z,1000.00
2018-02-11T03:04:19.461Z,999.91
2018-02-11T03:05:19.440Z,999.95
2018-02-11T03:06:19.415Z,999.86
2018-02-11T03:07:19.417Z,999.88
2018-02-11T03:08:19.395Z,999.84
2018-02-11T03:09:19.365Z,999.67
2018-02-11T03:10:19.335Z,999.74
2018-02-11T03:11:19.321Z,999.74
2018-02-11T03:12:19.289Z,999.68
2018-02-11T03:13:19.297Z,999.69
2018-02-11T03:14:19.252Z,999.67
2018-02-11T03:15:19.231Z,999.63
2018-02-11T03:16:19.803Z,999.63
2018-02-11T03:17:19.192Z,999.60
2018-02-11T03:18:19.170Z,999.56
2018-02-11T03:19:20.773Z,999.51
2018-02-11T03:20:19.814Z,999.49
2018-02-11T03:21:19.103Z,999.45
2018-02-11T03:22:19.088Z,999.44
2018-02-11T03:23:40.089Z,999.41
2018-02-11T03:24:19.042Z,999.30
2018-02-11T03:25:19.029Z,999.29
2018-02-11T03:26:19.005Z,999.25
2018-02-11T03:27:18.984Z,999.29
2018-02-11T03:28:18.981Z,999.21
2018-02-11T03:29:18.949Z,999.26
2018-02-11T03:30:18.950Z,999.15
2018-02-11T03:31:19.773Z,999.10
2018-02-11T03:32:18.880Z,999.10
2018-02-11T03:33:18.880Z,999.08
2018-02-11T03:34:19.811Z,999.08
2018-02-11T03:35:18.837Z,998.99
2018-02-11T03:36:18.804Z,999.03
2018-02-11T03:37:18.773Z,999.00
2018-02-11T03:38:18.756Z,998.88
2018-02-11T03:39:18.732Z,998.93
2018-02-11T03:40:18.772Z,999.03
2018-02-11T03:41:18.707Z,998.89
2018-02-11T03:42:18.670Z,998.94
2018-02-11T03:43:18.644Z,998.92
2018-02-11T03:44:18.648Z,998.88
2018-02-11T03:45:18.649Z,998.88
2018-02-11T03:46:18.619Z,998.90
2018-02-11T03:47:18.562Z,998.83
2018-02-11T03:48:18.570Z,998.78
2018-02-11T03:49:18.540Z,998.80
2018-02-11T03:50:19.273Z,998.84
2018-02-11T03:51:19.274Z,998.77
2018-02-11T03:52:18.456Z,998.75
2018-02-11T03:53:18.488Z,998.82
2018-02-11T03:54:18.432Z,998.74
2018-02-11T03:55:18.421Z,998.80
2018-02-11T03:56:18.432Z,998.75
2018-02-11T03:57:18.417Z,998.68
2018-02-11T03:58:18.352Z,998.68
2018-02-11T03:59:19.274Z,998.64
2018-02-11T04:00:18.293Z,998.62
2018-02-11T04:01:18.339Z,998.62
2018-02-11T04:02:18.248Z,998.62
2018-02-11T04:03:18.253Z,998.59
2018-02-11T04:04:18.218Z,998.58
2018-02-11T04:05:18.200Z,998.50
2018-02-11T04:06:18.166Z,998.53
2018-02-11T04:07:18.172Z,998.49
2018-02-11T04:08:18.137Z,998.51
2018-02-11T04:09:18.102Z,998.42
2018-02-11T04:10:18.102Z,998.39
2018-02-11T04:11:18.064Z,998.38
2018-02-11T04:12:18.058Z,998.37
2018-02-11T04:13:18.019Z,998.26
2018-02-11T04:14:18.000Z,998.26
2018-02-11T04:15:17.981Z,998.26
2018-02-11T04:16:17.956Z,998.29
2018-02-11T04:17:17.949Z,998.23
2018-02-11T04:18:17.952Z,998.19
2018-02-11T04:19:17.896Z,998.24
2018-02-11T04:20:17.896Z,998.20
2018-02-11T04:21:18.775Z,998.17
2018-02-11T04:22:17.831Z,998.13
2018-02-11T04:23:17.831Z,998.13
2018-02-11T04:24:17.786Z,998.07
2018-02-11T04:25:17.771Z,998.10
2018-02-11T04:26:17.749Z,998.05
2018-02-11T04:27:18.275Z,998.06
2018-02-11T04:28:17.707Z,998.03
2018-02-11T04:29:18.275Z,998.02
2018-02-11T04:30:17.681Z,998.00
2018-02-11T04:31:17.644Z,997.93
2018-02-11T04:32:17.633Z,997.86
2018-02-11T04:33:17.601Z,997.85
2018-02-11T04:34:17.576Z,997.83
2018-02-11T04:35:17.578Z,997.84
2018-02-11T04:36:17.538Z,997.84
2018-02-11T04:37:17.517Z,997.80
2018-02-11T04:38:19.276Z,997.83
2018-02-11T04:39:17.479Z,997.87
2018-02-11T04:40:17.479Z,997.74
2018-02-11T04:41:17.451Z,997.69
2018-02-11T04:42:17.419Z,997.68
2018-02-11T04:43:17.390Z,997.65
2018-02-11T04:44:17.376Z,997.68
2018-02-11T04:45:17.359Z,997.61
2018-02-11T04:46:17.350Z,997.62
2018-02-11T04:47:17.312Z,997.69
2018-02-11T04:48:17.306Z,997.65
2018-02-11T04:49:17.272Z,997.64
2018-02-11T04:50:17.251Z,997.54
2018-02-11T04:51:17.233Z,997.56
2018-02-11T04:52:17.208Z,997.49
2018-02-11T04:53:17.206Z,997.50
2018-02-11T04:54:17.163Z,997.47
2018-02-11T04:55:17.150Z,997.49
2018-02-11T04:56:17.123Z,997.50
2018-02-11T04:57:17.782Z,997.52
2018-02-11T04:58:17.083Z,997.48
2018-02-11T04:59:17.084Z,997.40
2018-02-11T05:00:17.044Z,997.44
2018-02-11T05:01:17.019Z,997.43
2018-02-11T05:02:17.007Z,997.50
2018-02-11T05:03:16.978Z,997.46
2018-02-11T05:04:16.967Z,997.43
2018-02-11T05:05:16.957Z,997.51
2018-02-11T05:06:16.909Z,997.48
2018-02-11T05:07:16.911Z,997.49
2018-02-11T05:08:18.781Z,997.46
2018-02-11T05:09:16.849Z,997.53
2018-02-11T05:10:16.860Z,997.50
2018-02-11T05:11:16.836Z,997.43
2018-02-11T05:12:17.787Z,997.45
2018-02-11T05:13:16.778Z,997.34
2018-02-11T05:14:16.752Z,997.33
2018-02-11T05:15:16.747Z,997.27
2018-02-11T05:16:17.314Z,997.34
2018-02-11T05:17:16.705Z,997.36
2018-02-11T05:18:16.675Z,997.31
2018-02-11T05:19:16.651Z,997.17
2018-02-11T05:20:16.644Z,997.29
2018-02-11T05:21:16.614Z,997.32
2018-02-11T05:22:16.589Z,997.35
2018-02-11T05:23:16.579Z,997.17
2018-02-11T05:24:16.575Z,997.19
2018-02-11T05:25:16.520Z,997.24
2018-02-11T05:26:16.506Z,997.21
2018-02-11T05:27:16.479Z,997.28
2018-02-11T05:28:16.472Z,997.17
2018-02-11T05:29:16.459Z,997.24
2018-02-11T05:30:16.524Z,997.19
2018-02-11T05:31:16.417Z,997.26
2018-02-11T05:32:16.387Z,997.25
2018-02-11T05:33:16.361Z,997.11
2018-02-11T05:34:16.355Z,997.19
2018-02-11T05:35:16.345Z,997.19
2018-02-11T05:36:16.300Z,997.18
2018-02-11T05:37:16.808Z,997.13
2018-02-11T05:38:16.253Z,997.15
2018-02-11T05:39:16.257Z,997.12
2018-02-11T05:40:16.222Z,997.15
2018-02-11T05:41:16.196Z,997.09
2018-02-11T05:42:16.201Z,997.02
2018-02-11T05:43:16.166Z,997.06
2018-02-11T05:44:16.130Z,997.01
2018-02-11T05:45:16.112Z,996.97
2018-02-11T05:46:16.106Z,996.93
2018-02-11T05:47:16.085Z,996.99
2018-02-11T05:48:16.780Z,996.95
2018-02-11T05:49:16.780Z,996.91
2018-02-11T05:50:16.007Z,997.02
2018-02-11T05:51:15.993Z,996.94
2018-02-11T05:52:16.866Z,996.94
2018-02-11T05:53:15.964Z,996.96
2018-02-11T05:54:15.933Z,996.98
2018-02-11T05:55:15.914Z,996.96
2018-02-11T05:56:16.799Z,996.91
2018-02-11T05:57:15.864Z,996.95
2018-02-11T05:58:15.858Z,996.99
2018-02-11T05:59:16.779Z,996.90
2018-02-11T06:00:16.311Z,996.89
2018-02-11T06:01:15.782Z,996.94
2018-02-11T06:02:15.761Z,996.93
2018-02-11T06:03:15.757Z,996.87
2018-02-11T06:04:15.723Z,996.92
2018-02-11T06:05:15.730Z,996.90
2018-02-11T06:06:15.683Z,996.82
2018-02-11T06:07:15.660Z,996.93
2018-02-11T06:08:15.643Z,996.89
2018-02-11T06:09:15.641Z,996.90
2018-02-11T06:10:15.614Z,996.92
2018-02-11T06:11:15.580Z,996.83
2018-02-11T06:12:15.557Z,996.92
2018-02-11T06:13:15.543Z,996.92
2018-02-11T06:14:15.517Z,996.98
2018-02-11T06:15:15.516Z,996.94
2018-02-11T06:16:15.482Z,996.87
2018-02-11T06:17:15.458Z,996.92
2018-02-11T06:18:15.439Z,996.90
2018-02-11T06:19:15.425Z,996.84
2018-02-11T06:20:16.281Z,996.84
2018-02-11T06:21:18.349Z,996.88
2018-02-11T06:22:15.363Z,996.93
2018-02-11T06:23:15.849Z,996.85
2018-02-11T06:24:15.349Z,996.88
2018-02-11T06:25:17.281Z,996.90
2018-02-11T06:26:15.286Z,996.86
2018-02-11T06:27:15.273Z,996.89
2018-02-11T06:28:15.241Z,996.80
2018-02-11T06:29:15.783Z,996.86
2018-02-11T06:30:15.201Z,996.89
2018-02-11T06:31:15.178Z,996.90
2018-02-11T06:32:15.171Z,996.85
2018-02-11T06:33:15.154Z,996.81
2018-02-11T06:34:15.111Z,996.84
2018-02-11T06:35:15.097Z,996.85
2018-02-11T06:36:15.074Z,996.79
2018-02-11T06:37:15.056Z,996.79
2018-02-11T06:38:15.054Z,996.82
2018-02-11T06:39:15.018Z,996.82
2018-02-11T06:40:14.996Z,996.76
2018-02-11T06:41:14.991Z,996.73
2018-02-11T06:42:14.960Z,996.76
2018-02-11T06:43:16.782Z,996.78
2018-02-11T06:44:14.929Z,996.75
2018-02-11T06:45:14.896Z,996.72
2018-02-11T06:46:14.876Z,996.75
2018-02-11T06:47:14.866Z,996.77
2018-02-11T06:48:14.836Z,996.84
2018-02-11T06:49:14.844Z,996.82
2018-02-11T06:50:14.814Z,996.81
2018-02-11T06:51:14.775Z,996.80
2018-02-11T06:52:14.766Z,996.79
2018-02-11T06:53:14.747Z,996.74
2018-02-11T06:54:14.717Z,996.81
2018-02-11T06:55:14.716Z,996.78
2018-02-11T06:56:14.695Z,996.74
2018-02-11T06:57:14.650Z,996.87
2018-02-11T06:58:14.635Z,996.76
2018-02-11T06:59:14.615Z,996.76
2018-02-11T07:00:14.603Z,996.78
2018-02-11T07:01:14.574Z,996.64
2018-02-11T07:02:14.571Z,996.67
2018-02-11T07:03:14.532Z,996.77
2018-02-11T07:04:14.515Z,996.72
2018-02-11T07:05:14.493Z,996.63
2018-02-11T07:06:14.470Z,996.65
2018-02-11T07:07:14.469Z,996.72
2018-02-11T07:08:14.445Z,996.62
2018-02-11T07:09:14.415Z,996.62
2018-02-11T07:10:14.391Z,996.71
2018-02-11T07:11:14.386Z,996.73
2018-02-11T07:12:14.375Z,996.72
2018-02-11T07:13:15.334Z,996.73
2018-02-11T07:14:14.307Z,996.71
2018-02-11T07:15:14.299Z,996.84
2018-02-11T07:16:14.294Z,996.78
2018-02-11T07:17:14.255Z,996.69
2018-02-11T07:18:14.227Z,996.70
2018-02-11T07:19:14.229Z,996.76
2018-02-11T07:20:15.285Z,996.67
2018-02-11T07:21:14.188Z,996.77
2018-02-11T07:22:14.170Z,996.62
2018-02-11T07:23:14.134Z,996.72
2018-02-11T07:24:14.120Z,996.77
2018-02-11T07:25:14.088Z,996.77
2018-02-11T07:26:14.068Z,996.69
2018-02-11T07:27:14.138Z,996.71
2018-02-11T07:28:14.124Z,996.84
2018-02-11T07:29:14.012Z,996.89
2018-02-11T07:30:13.995Z,996.71
2018-02-11T07:31:13.993Z,996.82
2018-02-11T07:32:34.972Z,996.86
2018-02-11T07:33:13.937Z,996.91
2018-02-11T07:34:13.925Z,996.87
2018-02-11T07:35:13.898Z,996.88
2018-02-11T07:36:13.879Z,996.85
2018-02-11T07:37:13.872Z,996.94
2018-02-11T07:38:13.836Z,996.95
2018-02-11T07:39:13.842Z,996.92
2018-02-11T07:40:13.796Z,996.90
2018-02-11T07:41:13.778Z,996.92
2018-02-11T07:42:13.761Z,996.91
2018-02-11T07:43:14.311Z,996.95
2018-02-11T07:44:13.740Z,996.93
2018-02-11T07:45:13.699Z,996.94
2018-02-11T07:46:13.682Z,996.97
2018-02-11T07:47:13.658Z,996.96
2018-02-11T07:48:13.646Z,996.97
2018-02-11T07:49:13.634Z,996.97
2018-02-11T07:50:13.603Z,997.03
2018-02-11T07:51:13.582Z,997.02
2018-02-11T07:52:13.564Z,997.03
2018-02-11T07:53:13.539Z,997.04
2018-02-11T07:54:13.521Z,997.05
2018-02-11T07:55:13.517Z,997.09
2018-02-11T07:56:13.484Z,997.05
2018-02-11T07:57:13.458Z,997.14
2018-02-11T07:58:13.446Z,997.14
2018-02-11T07:59:13.421Z,997.16
2018-02-11T08:00:13.425Z,997.24
2018-02-11T08:01:13.382Z,997.23
2018-02-11T08:02:13.363Z,997.23
2018-02-11T08:03:13.347Z,997.29
2018-02-11T08:04:13.325Z,997.27
2018-02-11T08:05:13.325Z,997.29
2018-02-11T08:06:13.286Z,997.27
2018-02-11T08:07:13.269Z,997.31
2018-02-11T08:08:13.248Z,997.28
2018-02-11T08:09:13.231Z,997.39
2018-02-11T08:10:13.226Z,997.40
2018-02-11T08:11:13.183Z,997.34
2018-02-11T08:12:13.167Z,997.41
2018-02-11T08:13:13.146Z,997.34
2018-02-11T08:14:13.130Z,997.36
2018-02-11T08:15:13.109Z,997.35
2018-02-11T08:16:13.109Z,997.33
2018-02-11T08:17:13.076Z,997.32
2018-02-11T08:18:13.052Z,997.22
2018-02-11T08:19:13.033Z,997.30
2018-02-11T08:20:13.014Z,997.34
2018-02-11T08:21:12.996Z,997.35
2018-02-11T08:22:12.985Z,997.30
2018-02-11T08:23:12.959Z,997.29
2018-02-11T08:24:12.937Z,997.28
2018-02-11T08:25:12.930Z,997.28
2018-02-11T08:26:12.894Z,997.26
2018-02-11T08:27:12.897Z,997.33
2018-02-11T08:28:12.853Z,997.34
2018-02-11T08:29:12.837Z,997.22
2018-02-11T08:30:12.824Z,997.19
2018-02-11T08:31:12.801Z,997.25
2018-02-11T08:32:12.785Z,997.28
2018-02-11T08:33:12.777Z,997.30
2018-02-11T08:34:12.739Z,997.30
2018-02-11T08:35:12.727Z,997.31
2018-02-11T08:36:12.702Z,997.39
2018-02-11T08:37:12.685Z,997.36
2018-02-11T08:38:12.679Z,997.30
2018-02-11T08:39:13.324Z,997.37
2018-02-11T08:40:12.637Z,997.33
2018-02-11T08:41:12.611Z,997.30
2018-02-11T08:42:13.373Z,997.37
2018-02-11T08:43:12.572Z,997.26
2018-02-11T08:44:12.549Z,997.26
2018-02-11T08:45:12.551Z,997.34
2018-02-11T08:46:12.522Z,997.43
2018-02-11T08:47:12.518Z,997.28
2018-02-11T08:48:12.484Z,997.36
2018-02-11T08:49:13.294Z,997.36
2018-02-11T08:50:12.435Z,997.33
2018-02-11T08:51:12.436Z,997.39
2018-02-11T08:52:12.396Z,997.33
2018-02-11T08:53:12.394Z,997.36
2018-02-11T08:54:12.397Z,997.40
2018-02-11T08:55:12.346Z,997.37
2018-02-11T08:56:12.321Z,997.34
2018-02-11T08:57:12.307Z,997.38
2018-02-11T08:58:12.284Z,997.35
2018-02-11T08:59:33.284Z,997.40
2018-02-11T09:00:12.275Z,997.40
2018-02-11T09:01:12.231Z,997.26
2018-02-11T09:02:12.228Z,997.42
2018-02-11T09:03:12.201Z,997.44
2018-02-11T09:04:12.177Z,997.43
2018-02-11T09:05:12.164Z,997.45
2018-02-11T09:06:12.142Z,997.41
2018-02-11T09:07:12.125Z,997.46
2018-02-11T09:08:12.107Z,997.35
2018-02-11T09:09:12.081Z,997.43
2018-02-11T09:10:12.118Z,997.43
2018-02-11T09:11:12.044Z,997.35
2018-02-11T09:12:12.025Z,997.45
2018-02-11T09:13:12.021Z,997.48
2018-02-11T09:14:12.834Z,997.53
2018-02-11T09:15:11.969Z,997.53
2018-02-11T09:16:11.952Z,997.43
2018-02-11T09:17:11.938Z,997.42
2018-02-11T09:18:12.388Z,997.47
2018-02-11T09:19:11.901Z,997.34
2018-02-11T09:20:11.878Z,997.50
2018-02-11T09:21:11.877Z,997.40
2018-02-11T09:22:12.796Z,997.48
2018-02-11T09:23:11.829Z,997.44
2018-02-11T09:24:11.815Z,997.46
2018-02-11T09:25:11.803Z,997.48
2018-02-11T09:26:11.790Z,997.42
2018-02-11T09:27:11.761Z,997.50
2018-02-11T09:28:11.739Z,997.42
2018-02-11T09:29:11.713Z,997.43
2018-02-11T09:30:11.718Z,997.48
2018-02-11T09:31:11.681Z,997.48
2018-02-11T09:32:11.665Z,997.41
2018-02-11T09:33:11.641Z,997.40
2018-02-11T09:34:11.624Z,997.47
2018-02-11T09:35:11.609Z,997.39
2018-02-11T09:36:11.601Z,997.40
2018-02-11T09:37:11.563Z,997.40
2018-02-11T09:38:12.331Z,997.36
2018-02-11T09:39:11.531Z,997.40
2018-02-11T09:40:11.515Z,997.44
2018-02-11T09:41:11.512Z,997.46
2018-02-11T09:42:11.501Z,997.49
2018-02-11T09:43:11.465Z,997.48
2018-02-11T09:44:11.438Z,997.53
2018-02-11T09:45:11.445Z,997.48
2018-02-11T09:46:11.412Z,997.49
2018-02-11T09:47:11.411Z,997.55
2018-02-11T09:48:11.366Z,997.47
2018-02-11T09:49:11.364Z,997.48
2018-02-11T09:50:11.332Z,997.45
2018-02-11T09:51:11.317Z,997.53
2018-02-11T09:52:11.833Z,997.49
2018-02-11T09:53:11.275Z,997.53
2018-02-11T09:54:11.265Z,997.47
2018-02-11T09:55:11.243Z,997.52
2018-02-11T09:56:11.223Z,997.56
2018-02-11T09:57:11.224Z,997.48
2018-02-11T09:58:11.189Z,997.48
2018-02-11T09:59:11.188Z,997.53
2018-02-11T10:00:11.151Z,997.58
2018-02-11T10:01:11.136Z,997.51
2018-02-11T10:02:11.124Z,997.56
2018-02-11T10:03:11.116Z,997.57
2018-02-11T10:04:11.091Z,997.59
2018-02-11T10:05:11.064Z,997.60
2018-02-11T10:06:11.041Z,997.57
2018-02-11T10:07:11.029Z,997.64
2018-02-11T10:08:11.014Z,997.59
2018-02-11T10:09:11.006Z,997.63
2018-02-11T10:10:11.026Z,997.63
2018-02-11T10:11:10.957Z,997.67
2018-02-11T10:12:10.933Z,997.65
2018-02-11T10:13:10.933Z,997.61
2018-02-11T10:14:10.901Z,997.60
2018-02-11T10:15:10.884Z,997.57
2018-02-11T10:16:10.864Z,997.59
2018-02-11T10:17:10.849Z,997.58
2018-02-11T10:18:10.848Z,997.57
2018-02-11T10:19:10.806Z,997.54
2018-02-11T10:20:10.813Z,997.60
2018-02-11T10:21:10.780Z,997.66
2018-02-11T10:22:10.751Z,997.58
2018-02-11T10:23:10.739Z,997.57
2018-02-11T10:24:10.717Z,997.56
2018-02-11T10:25:10.702Z,997.58
2018-02-11T10:26:10.703Z,997.64
2018-02-11T10:27:10.665Z,997.60
2018-02-11T10:28:10.642Z,997.60
2018-02-11T10:29:10.629Z,997.57
2018-02-11T10:30:10.621Z,997.66
2018-02-11T10:31:10.591Z,997.61
2018-02-11T10:32:10.571Z,997.62
2018-02-11T10:33:10.551Z,997.67
2018-02-11T10:34:10.533Z,997.65
2018-02-11T10:35:10.518Z,997.61
2018-02-11T10:36:10.529Z,997.68
2018-02-11T10:37:10.481Z,997.64
2018-02-11T10:38:10.474Z,997.64
2018-02-11T10:39:10.446Z,997.62
2018-02-11T10:40:11.340Z,997.63
2018-02-11T10:41:10.423Z,997.64
2018-02-11T10:42:10.386Z,997.61
2018-02-11T10:43:10.375Z,997.65
2018-02-11T10:44:10.353Z,997.79
2018-02-11T10:45:10.360Z,997.80
2018-02-11T10:46:10.323Z,997.85
2018-02-11T10:47:10.313Z,997.82
2018-02-11T10:48:10.279Z,997.84
2018-02-11T10:49:10.272Z,997.75
2018-02-11T10:50:10.239Z,997.72
2018-02-11T10:51:10.241Z,997.74
2018-02-11T10:52:10.201Z,997.81
2018-02-11T10:53:10.190Z,997.82
2018-02-11T10:54:10.177Z,997.82
2018-02-11T10:55:10.156Z,997.84
2018-02-11T10:56:10.149Z,997.80
2018-02-11T10:57:10.189Z,997.79
2018-02-11T10:58:10.097Z,997.72
2018-02-11T10:59:10.843Z,997.68
2018-02-11T11:00:10.068Z,997.70
2018-02-11T11:01:10.064Z,997.68
2018-02-11T11:02:10.030Z,997.73
2018-02-11T11:03:10.035Z,997.76
2018-02-11T11:04:09.992Z,997.77
2018-02-11T11:05:09.989Z,997.74
2018-02-11T11:06:09.995Z,997.68
2018-02-11T11:07:09.943Z,997.64
2018-02-11T11:08:09.925Z,997.60
2018-02-11T11:09:09.907Z,997.63
2018-02-11T11:10:09.898Z,997.63
2018-02-11T11:11:09.877Z,997.62
2018-02-11T11:12:09.874Z,997.65
2018-02-11T11:13:10.341Z,997.61
2018-02-11T11:14:09.825Z,997.64
2018-02-11T11:15:09.804Z,997.78
2018-02-11T11:16:10.351Z,997.88
2018-02-11T11:17:09.794Z,997.92
2018-02-11T11:18:09.779Z,997.95
2018-02-11T11:19:09.794Z,997.94
2018-02-11T11:20:09.756Z,997.95
2018-02-11T11:21:09.697Z,998.00
2018-02-11T11:22:09.714Z,997.97
2018-02-11T11:23:09.658Z,997.97
2018-02-11T11:24:09.662Z,997.93
2018-02-11T11:25:09.628Z,997.86
2018-02-11T11:26:09.624Z,997.91
2018-02-11T11:27:09.614Z,997.93
2018-02-11T11:28:09.574Z,997.82
2018-02-11T11:29:09.560Z,997.85
2018-02-11T11:30:09.571Z,997.85
2018-02-11T11:31:09.521Z,997.75
2018-02-11T11:32:09.512Z,997.76
2018-02-11T11:33:09.489Z,997.70
2018-02-11T11:34:09.469Z,997.63
2018-02-11T11:35:09.447Z,997.71
2018-02-11T11:36:09.447Z,997.74
2018-02-11T11:37:09.412Z,997.77
2018-02-11T11:38:09.404Z,997.79
2018-02-11T11:39:09.408Z,997.73
2018-02-11T11:40:09.370Z,997.80
2018-02-11T11:41:09.336Z,997.70
2018-02-11T11:42:09.316Z,997.71
2018-02-11T11:43:09.302Z,997.76
2018-02-11T11:44:09.302Z,997.74
2018-02-11T11:45:09.273Z,997.73
2018-02-11T11:46:09.265Z,997.77
2018-02-11T11:47:09.261Z,997.82
2018-02-11T11:48:09.216Z,997.77
2018-02-11T11:49:09.203Z,997.78
2018-02-11T11:50:09.201Z,997.78
2018-02-11T11:51:09.187Z,997.75
2018-02-11T11:52:09.143Z,997.81
2018-02-11T11:53:09.136Z,997.75
2018-02-11T11:54:09.126Z,997.73
2018-02-11T11:55:09.112Z,997.76
2018-02-11T11:56:09.074Z,997.74
2018-02-11T11:57:09.055Z,997.76
2018-02-11T11:58:09.035Z,997.74
2018-02-11T11:59:09.018Z,997.79
2018-02-11T12:00:09.025Z,997.75
2018-02-11T12:01:09.007Z,997.79
2018-02-11T12:02:08.960Z,997.77
2018-02-11T12:03:08.953Z,997.75
2018-02-11T12:04:08.934Z,997.76
2018-02-11T12:05:08.913Z,997.82
2018-02-11T12:06:08.895Z,997.85
2018-02-11T12:07:08.897Z,997.89
2018-02-11T12:08:08.871Z,997.86
2018-02-11T12:09:08.843Z,997.91
2018-02-11T12:10:08.832Z,997.95
2018-02-11T12:11:08.803Z,997.76
2018-02-11T12:12:08.803Z,997.85
2018-02-11T12:13:08.770Z,997.84
2018-02-11T12:14:08.755Z,997.75
2018-02-11T12:15:08.736Z,997.84
2018-02-11T12:16:08.741Z,997.90
2018-02-11T12:17:08.719Z,997.84
2018-02-11T12:18:08.722Z,997.83
2018-02-11T12:19:08.680Z,997.89
2018-02-11T12:20:08.652Z,997.86
2018-02-11T12:21:08.648Z,997.83
2018-02-11T12:22:08.650Z,997.84